Time;durP1;ratioP1;P1;durP2;ratioP2;P2;SDS_P1;SDS_P2;PMS_P1;PMS_P2;Temp;Humidity;BMP_temperature;BMP_pressure;BME280_temperature;BME280_humidity;BME280_pressure;Samples;Min_cycle;Max_cycle;Signal;HPM_P1;HPM_P2
2023/10/08 00:00:53;;;;;;;0.00;0.00;;;10.70;100.00;;;;;;4986069;28;20710;-74
2023/10/08 00:03:20;;;;;;;0.00;0.00;;;10.70;100.00;;;;;;4989459;28;20379;-74
2023/10/08 00:05:51;;;;;;;0.00;0.00;;;10.70;100.00;;;;;;4985320;28;20145;-74
2023/10/08 00:08:19;;;;;;;0.00;0.00;;;10.70;100.00;;;;;;4984098;28;20046;-74
2023/10/08 00:10:46;;;;;;;0.00;0.00;;;10.70;100.00;;;;;;4986936;28;20046;-74
2023/10/08 00:13:17;;;;;;;0.00;0.00;;;10.60;100.00;;;;;;4987515;28;20066;-74
2023/10/08 00:15:54;;;;;;;0.00;0.00;;;10.60;100.00;;;;;;4987454;28;20546;-74
2023/10/08 00:18:22;;;;;;;0.00;0.00;;;10.60;100.00;;;;;;4971071;28;20054;-86
2023/10/08 00:21:16;;;;;;;0.00;0.00;;;10.60;100.00;;;;;;4995358;28;20055;-87
2023/10/08 00:23:49;;;;;;;0.00;0.00;;;10.60;100.00;;;;;;4993421;28;20046;-86
2023/10/08 00:26:18;;;;;;;0.00;0.00;;;10.50;100.00;;;;;;4989910;28;20084;-86
2023/10/08 00:28:51;;;;;;;0.00;0.00;;;10.50;100.00;;;;;;4985164;28;20552;-86
2023/10/08 00:31:18;;;;;;;0.00;0.00;;;10.50;100.00;;;;;;4994077;28;20062;-84
2023/10/08 00:33:45;;;;;;;0.00;0.00;;;10.50;100.00;;;;;;4986799;28;20664;-86
2023/10/08 00:36:19;;;;;;;0.00;0.00;;;10.50;100.00;;;;;;4992344;28;20150;-86
2023/10/08 00:38:51;;;;;;;0.00;0.00;;;10.50;100.00;;;;;;4990695;28;20058;-86
2023/10/08 00:41:40;;;;;;;0.00;0.00;;;10.50;100.00;;;;;;4994086;28;20523;-85
2023/10/08 00:44:35;;;;;;;0.00;0.00;;;10.50;100.00;;;;;;4991021;28;20081;-86
2023/10/08 00:47:00;;;;;;;0.00;0.00;;;10.50;100.00;;;;;;4991055;28;20046;-86
2023/10/08 00:49:47;;;;;;;0.00;0.00;;;10.40;100.00;;;;;;4994013;28;20726;-87
2023/10/08 00:55:06;;;;;;;;;;;;;;;;;;;;;
2023/10/08 00:57:26;;;;;;;0.00;0.00;;;10.40;100.00;;;;;;4993845;28;20660;-86
2023/10/08 00:59:54;;;;;;;0.00;0.00;;;10.30;100.00;;;;;;4999935;28;20050;-86
2023/10/08 01:02:26;;;;;;;0.00;0.00;;;10.30;100.00;;;;;;4991965;28;20046;-86
2023/10/08 01:04:57;;;;;;;0.00;0.00;;;10.30;100.00;;;;;;4992575;28;20042;-86
2023/10/08 01:07:25;;;;;;;0.00;0.00;;;10.30;100.00;;;;;;5000726;28;20100;-86
2023/10/08 01:09:58;;;;;;;0.00;0.00;;;10.30;100.00;;;;;;4989719;28;20093;-87
2023/10/08 01:12:33;;;;;;;0.00;0.00;;;10.20;100.00;;;;;;4986904;28;20039;-86
2023/10/08 01:15:18;;;;;;;0.00;0.00;;;10.20;100.00;;;;;;4975015;28;20054;-86
2023/10/08 01:17:57;;;;;;;0.00;0.00;;;10.10;100.00;;;;;;4991597;28;20072;-87
2023/10/08 01:20:34;;;;;;;0.00;0.00;;;10.10;100.00;;;;;;4989490;28;20109;-86
2023/10/08 01:23:16;;;;;;;0.00;0.00;;;10.10;100.00;;;;;;4989990;28;20721;-86
2023/10/08 01:26:09;;;;;;;0.00;0.00;;;10.00;100.00;;;;;;4988704;28;20078;-85
2023/10/08 01:28:37;;;;;;;0.00;0.00;;;10.00;100.00;;;;;;4993337;28;20046;-86
2023/10/08 01:31:04;;;;;;;0.00;0.00;;;10.00;100.00;;;;;;4971662;28;20046;-86
2023/10/08 01:33:32;;;;;;;0.00;0.00;;;9.90;100.00;;;;;;4990609;28;20051;-86
2023/10/08 01:36:04;;;;;;;0.00;0.00;;;9.90;100.00;;;;;;4987603;28;20053;-86
2023/10/08 01:38:34;;;;;;;0.00;0.00;;;9.90;100.00;;;;;;4989731;28;20054;-86
2023/10/08 01:41:03;;;;;;;0.00;0.00;;;9.80;100.00;;;;;;4967811;28;20062;-74
2023/10/08 01:46:40;;;;;;;0.00;0.00;;;9.80;100.00;;;;;;4994576;28;20380;-86
2023/10/08 01:49:14;;;;;;;0.00;0.00;;;9.70;100.00;;;;;;4981527;28;20471;-74
2023/10/08 01:51:46;;;;;;;0.00;0.00;;;9.70;100.00;;;;;;4988021;28;20054;-74
2023/10/08 01:54:17;;;;;;;0.00;0.00;;;9.70;100.00;;;;;;4989823;28;20399;-86
2023/10/08 01:56:44;;;;;;;0.00;0.00;;;9.60;100.00;;;;;;5004110;28;20045;-86
2023/10/08 01:59:16;;;;;;;0.00;0.00;;;9.60;100.00;;;;;;5017674;28;20109;-86
2023/10/08 02:01:45;;;;;;;0.00;0.00;;;9.60;100.00;;;;;;4988149;28;20064;-74
2023/10/08 02:04:12;;;;;;;0.00;0.00;;;9.60;100.00;;;;;;4982049;28;20046;-74
2023/10/08 02:06:40;;;;;;;0.00;0.00;;;9.50;100.00;;;;;;4983689;28;20050;-74
2023/10/08 02:09:10;;;;;;;0.00;0.00;;;9.40;100.00;;;;;;4985664;28;20053;-74
2023/10/08 02:11:53;;;;;;;0.00;0.00;;;9.40;100.00;;;;;;5003674;28;20054;-74
2023/10/08 02:14:22;;;;;;;0.00;0.00;;;9.40;100.00;;;;;;5000328;28;20053;-74
2023/10/08 02:16:52;;;;;;;0.00;0.00;;;9.40;100.00;;;;;;4979859;28;20134;-74
2023/10/08 02:19:26;;;;;;;0.00;0.00;;;9.40;100.00;;;;;;4983973;28;20061;-74
2023/10/08 02:21:54;;;;;;;;;;;9.30;100.00;;;;;;4982981;28;20061;-74
2023/10/08 02:24:24;;;;;;;0.00;0.00;;;9.30;100.00;;;;;;4983630;28;19925;-74
2023/10/08 02:26:51;;;;;;;0.00;0.00;;;9.30;100.00;;;;;;4986095;28;20054;-74
2023/10/08 02:29:19;;;;;;;0.00;0.00;;;9.30;100.00;;;;;;4985464;28;20108;-74
2023/10/08 02:31:47;;;;;;;0.00;0.00;;;9.20;100.00;;;;;;4981986;28;20865;-74
2023/10/08 02:34:15;;;;;;;0.00;0.00;;;9.20;100.00;;;;;;4997452;28;20490;-74
2023/10/08 02:36:41;;;;;;;0.00;0.00;;;9.20;100.00;;;;;;5001207;28;20058;-74
2023/10/08 02:39:21;;;;;;;0.00;0.00;;;9.10;100.00;;;;;;5000749;28;20064;-74
2023/10/08 02:41:49;;;;;;;0.00;0.00;;;9.10;100.00;;;;;;4984286;28;20050;-74
2023/10/08 02:44:17;;;;;;;0.00;0.00;;;9.10;100.00;;;;;;5003535;28;20772;-74
2023/10/08 02:50:27;;;;;;;0.00;0.00;;;9.00;100.00;;;;;;4960849;28;20047;-74
2023/10/08 02:52:54;;;;;;;0.00;0.00;;;8.90;100.00;;;;;;4967811;28;20054;-85
2023/10/08 02:55:54;;;;;;;0.00;0.00;;;8.80;100.00;;;;;;4966436;28;20715;-87
2023/10/08 02:58:15;;;;;;;0.00;0.00;;;8.80;100.00;;;;;;4960249;28;20051;-74
2023/10/08 03:00:49;;;;;;;0.00;0.00;;;8.70;100.00;;;;;;4963571;28;20051;-85
2023/10/08 03:03:18;;;;;;;0.00;0.00;;;8.70;100.00;;;;;;4968136;28;20058;-74
2023/10/08 03:05:47;;;;;;;0.00;0.00;;;8.60;100.00;;;;;;4967945;28;20506;-85
2023/10/08 03:08:19;;;;;;;0.00;0.00;;;8.60;100.00;;;;;;4970427;28;20139;-86
2023/10/08 03:10:55;;;;;;;0.00;0.00;;;8.50;100.00;;;;;;4980806;22;20327;-85
2023/10/08 03:13:23;;;;;;;0.00;0.00;;;8.50;100.00;;;;;;4992986;28;20046;-85
2023/10/08 03:18:36;;;;;;;0.00;0.00;;;8.40;100.00;;;;;;4997742;28;20406;-86
2023/10/08 03:21:06;;;;;;;0.00;0.00;;;8.30;100.00;;;;;;4978537;28;20116;-86
2023/10/08 03:23:36;;;;;;;0.00;0.00;;;8.30;100.00;;;;;;4981184;28;20050;-86
2023/10/08 03:26:11;;;;;;;0.00;0.00;;;8.20;100.00;;;;;;4983320;28;20081;-74
2023/10/08 03:28:41;;;;;;;0.00;0.00;;;8.10;100.00;;;;;;4983840;28;20926;-74
2023/10/08 03:31:16;;;;;;;0.00;0.00;;;8.00;100.00;;;;;;4974389;28;20058;-74
2023/10/08 03:33:49;;;;;;;0.00;0.00;;;8.00;100.00;;;;;;4995907;28;20059;-74
2023/10/08 03:36:22;;;;;;;0.00;0.00;;;8.00;100.00;;;;;;4994071;28;20064;-74
2023/10/08 03:38:51;;;;;;;0.00;0.00;;;7.90;100.00;;;;;;4997547;28;20061;-74
2023/10/08 03:41:32;;;;;;;0.00;0.00;;;7.80;100.00;;;;;;4986640;28;20737;-74
2023/10/08 03:44:05;;;;;;;0.00;0.00;;;7.80;100.00;;;;;;4974392;28;20518;-74
2023/10/08 03:46:39;;;;;;;0.00;0.00;;;7.80;100.00;;;;;;4970865;28;20057;-74
2023/10/08 03:49:14;;;;;;;0.00;0.00;;;7.70;100.00;;;;;;4972095;28;20177;-74
2023/10/08 03:51:44;;;;;;;0.00;0.00;;;7.70;100.00;;;;;;4987500;28;20053;-74
2023/10/08 03:56:51;;;;;;;0.00;0.00;;;7.60;100.00;;;;;;4993047;28;20436;-73
2023/10/08 03:59:31;;;;;;;0.00;0.00;;;7.50;100.00;;;;;;4973025;28;20689;-73
2023/10/08 04:02:10;;;;;;;0.00;0.00;;;7.50;100.00;;;;;;4984083;28;20209;-73
2023/10/08 04:04:49;;;;;;;0.00;0.00;;;7.50;100.00;;;;;;4966910;28;20156;-74
2023/10/08 04:07:41;;;;;;;0.00;0.00;;;7.40;100.00;;;;;;4994175;28;20046;-74
2023/10/08 04:12:41;;;;;;;0.00;0.00;;;7.30;100.00;;;;;;4989026;28;20057;-74
2023/10/08 04:15:09;;;;;;;0.00;0.00;;;7.30;100.00;;;;;;4990293;28;20054;-74
2023/10/08 04:17:43;;;;;;;0.00;0.00;;;7.40;100.00;;;;;;4976977;28;20046;-74
2023/10/08 04:20:33;;;;;;;0.00;0.00;;;7.50;100.00;;;;;;4994035;28;20406;-74
2023/10/08 04:23:04;;;;;;;0.00;0.00;;;7.40;100.00;;;;;;4992851;28;20935;-74
2023/10/08 04:25:34;;;;;;;0.00;0.00;;;7.40;100.00;;;;;;4992100;28;20542;-74
2023/10/08 04:28:20;;;;;;;0.00;0.00;;;7.40;100.00;;;;;;4993986;23;20816;-83
2023/10/08 04:30:47;;;;;;;0.00;0.00;;;7.30;100.00;;;;;;5028848;28;20045;-83
2023/10/08 04:33:14;;;;;;;0.00;0.00;;;7.20;100.00;;;;;;5049686;28;20563;-83
2023/10/08 04:35:55;;;;;;;0.00;0.00;;;7.10;100.00;;;;;;5027084;28;20099;-85
2023/10/08 04:38:28;;;;;;;0.00;0.00;;;7.10;100.00;;;;;;5042411;28;20042;-84
2023/10/08 04:41:01;;;;;;;0.00;0.00;;;7.00;100.00;;;;;;5033841;28;20548;-85
2023/10/08 04:43:30;;;;;;;0.00;0.00;;;7.00;100.00;;;;;;5045010;28;20059;-84
2023/10/08 04:45:58;;;;;;;0.00;0.00;;;6.90;100.00;;;;;;5039841;28;20053;-84
2023/10/08 04:48:29;;;;;;;0.00;0.00;;;6.90;100.00;;;;;;5019986;28;20063;-83
2023/10/08 04:50:59;;;;;;;0.00;0.00;;;6.90;100.00;;;;;;5046275;28;20506;-83
2023/10/08 04:53:37;;;;;;;0.00;0.00;;;6.90;100.00;;;;;;5047354;28;20052;-83
2023/10/08 04:56:06;;;;;;;0.00;0.00;;;6.80;100.00;;;;;;5051253;28;20060;-84
2023/10/08 04:58:36;;;;;;;0.00;0.00;;;6.70;100.00;;;;;;5021513;28;20056;-84
2023/10/08 05:09:22;;;;;;;0.00;0.00;;;6.50;100.00;;;;;;5051117;28;20052;-84
2023/10/08 05:12:30;;;;;;;0.00;0.00;;;6.50;100.00;;;;;;5033316;28;20481;-84
2023/10/08 05:28:25;;;;;;;0.00;0.00;;;6.30;100.00;;;;;;5048957;28;20052;-85
2023/10/08 05:34:14;;;;;;;0.00;0.00;;;6.20;100.00;;;;;;5040781;28;20645;-84
2023/10/08 05:36:35;;;;;;;0.00;0.00;;;6.10;100.00;;;;;;5048552;28;20053;-85
2023/10/08 05:42:19;;;;;;;0.00;0.00;;;6.10;100.00;;;;;;5024274;28;20498;-84
2023/10/08 05:45:13;;;;;;;0.00;0.00;;;6.10;100.00;;;;;;5022285;28;20052;-84
2023/10/08 05:52:53;;;;;;;0.00;0.00;;;6.20;100.00;;;;;;5044132;28;20997;-85
2023/10/08 05:55:26;;;;;;;0.00;0.00;;;6.20;100.00;;;;;;5045374;28;20103;-83
2023/10/08 05:58:13;;;;;;;0.00;0.00;;;6.20;100.00;;;;;;5038191;28;20057;-83
2023/10/08 06:03:46;;;;;;;0.00;0.00;;;6.30;100.00;;;;;;5047464;23;20078;-74
2023/10/08 06:09:04;;;;;;;0.00;0.00;;;6.30;100.00;;;;;;4984624;28;20814;-74
2023/10/08 06:14:13;;;;;;;0.00;0.00;;;6.30;100.00;;;;;;4979368;28;20050;-73
2023/10/08 06:16:42;;;;;;;0.00;0.00;;;6.20;100.00;;;;;;4964753;28;20058;-74
2023/10/08 06:19:09;;;;;;;0.00;0.00;;;6.10;100.00;;;;;;4979397;28;20144;-73
2023/10/08 06:21:39;;;;;;;0.00;0.00;;;6.10;100.00;;;;;;4976921;28;20057;-73
2023/10/08 06:24:11;;;;;;;0.00;0.00;;;6.10;100.00;;;;;;4978492;28;20062;-79
2023/10/08 06:26:42;;;;;;;0.00;0.00;;;6.10;100.00;;;;;;4967800;28;20081;-75
2023/10/08 06:29:27;;;;;;;0.00;0.00;;;6.10;100.00;;;;;;4981585;28;20081;-76
2023/10/08 06:31:56;;;;;;;0.00;0.00;;;6.20;100.00;;;;;;4978892;28;20061;-75
2023/10/08 06:34:27;;;;;;;0.00;0.00;;;6.20;100.00;;;;;;4980278;28;20062;-76
2023/10/08 06:36:57;;;;;;;0.00;0.00;;;6.20;100.00;;;;;;4964656;28;20507;-75
2023/10/08 06:39:47;;;;;;;0.00;0.00;;;6.20;100.00;;;;;;4982633;28;20085;-74
2023/10/08 06:42:15;;;;;;;0.00;0.00;;;6.30;100.00;;;;;;4959594;28;20109;-75
2023/10/08 06:44:46;;;;;;;0.00;0.00;;;6.40;100.00;;;;;;4974953;28;20046;-74
2023/10/08 06:47:15;;;;;;;0.00;0.00;;;6.50;100.00;;;;;;4961472;28;20116;-74
2023/10/08 06:49:43;;;;;;;0.00;0.00;;;6.50;100.00;;;;;;4975671;28;20157;-74
2023/10/08 06:52:12;;;;;;;0.00;0.00;;;6.50;100.00;;;;;;4980580;28;20082;-74
2023/10/08 06:54:41;;;;;;;0.00;0.00;;;6.50;100.00;;;;;;4961673;28;20093;-75
2023/10/08 06:57:13;;;;;;;0.00;0.00;;;6.60;100.00;;;;;;4979549;28;20128;-75
2023/10/08 06:59:42;;;;;;;0.00;0.00;;;6.70;100.00;;;;;;4967552;28;20479;-75
2023/10/08 07:02:10;;;;;;;0.00;0.00;;;6.70;100.00;;;;;;4966653;28;20051;-75
2023/10/08 07:04:39;;;;;;;0.00;0.00;;;6.80;100.00;;;;;;4965806;28;20058;-75
2023/10/08 07:07:09;;;;;;;0.00;0.00;;;6.90;100.00;;;;;;4966641;28;20161;-75
2023/10/08 07:09:36;;;;;;;0.00;0.00;;;7.00;100.00;;;;;;4981291;28;20058;-75
2023/10/08 07:12:06;;;;;;;0.00;0.00;;;7.10;100.00;;;;;;4975717;28;20058;-76
2023/10/08 07:14:33;;;;;;;0.00;0.00;;;7.10;100.00;;;;;;4977371;28;20085;-77
2023/10/08 07:17:01;;;;;;;0.00;0.00;;;7.20;100.00;;;;;;4980295;28;20318;-77
2023/10/08 07:19:33;;;;;;;0.00;0.00;;;7.30;100.00;;;;;;4981977;28;21173;-76
2023/10/08 07:22:03;;;;;;;0.00;0.00;;;7.40;100.00;;;;;;4961312;28;20054;-76
2023/10/08 07:24:34;;;;;;;0.00;0.00;;;7.50;100.00;;;;;;4966220;28;20070;-77
2023/10/08 07:27:08;;;;;;;0.00;0.00;;;7.50;100.00;;;;;;4964728;28;20097;-76
2023/10/08 07:29:36;;;;;;;0.00;0.00;;;7.60;100.00;;;;;;4966370;28;20133;-77
2023/10/08 07:32:11;;;;;;;0.00;0.00;;;7.70;100.00;;;;;;4965952;28;20058;-75
2023/10/08 07:34:39;;;;;;;0.00;0.00;;;7.90;100.00;;;;;;4964087;28;20425;-75
2023/10/08 07:37:06;;;;;;;0.00;0.00;;;8.00;100.00;;;;;;4979957;28;20065;-75
2023/10/08 07:42:07;;;;;;;0.00;0.00;;;8.30;100.00;;;;;;4991172;28;20046;-80
2023/10/08 07:44:38;;;;;;;0.00;0.00;;;8.40;100.00;;;;;;4970297;28;20125;-86
2023/10/08 07:47:13;;;;;;;0.00;0.00;;;8.60;100.00;;;;;;4986005;28;20444;-82
2023/10/08 07:49:43;;;;;;;0.00;0.00;;;8.70;100.00;;;;;;4978976;28;20053;-79
2023/10/08 07:52:15;;;;;;;0.00;0.00;;;8.90;100.00;;;;;;4970080;28;20711;-80
2023/10/08 07:54:43;;;;;;;0.00;0.00;;;9.10;100.00;;;;;;4985563;28;20120;-81
2023/10/08 07:57:30;;;;;;;0.00;0.00;;;9.30;100.00;;;;;;4992634;28;20057;-77
2023/10/08 08:02:43;;;;;;;0.00;0.00;;;9.70;100.00;;;;;;4989565;28;20049;-77
2023/10/08 08:05:15;;;;;;;0.00;0.00;;;9.70;100.00;;;;;;4964948;28;20062;-73
2023/10/08 08:07:43;;;;;;;0.00;0.00;;;9.80;100.00;;;;;;4966321;28;20058;-74
2023/10/08 08:10:10;;;;;;;0.00;0.00;;;10.10;100.00;;;;;;4967286;28;20490;-73
2023/10/08 08:12:38;;;;;;;0.00;0.00;;;10.40;100.00;;;;;;4969885;28;20050;-74
2023/10/08 08:15:14;;;;;;;0.00;0.00;;;10.60;100.00;;;;;;4985681;28;20077;-74
2023/10/08 08:17:42;;;;;;;0.00;0.00;;;10.60;100.00;;;;;;4980995;28;20541;-76
2023/10/08 08:20:19;;;;;;;0.00;0.00;;;10.60;100.00;;;;;;4969533;28;20678;-77
2023/10/08 08:22:49;;;;;;;0.00;0.00;;;10.70;100.00;;;;;;4982033;28;20274;-76
2023/10/08 08:25:26;;;;;;;0.00;0.00;;;10.80;100.00;;;;;;4987205;28;20427;-74
2023/10/08 08:27:53;;;;;;;0.00;0.00;;;10.70;100.00;;;;;;4985143;28;20053;-74
2023/10/08 08:30:26;;;;;;;0.00;0.00;;;10.60;100.00;;;;;;4962272;28;20480;-74
2023/10/08 08:32:55;;;;;;;0.00;0.00;;;10.50;100.00;;;;;;4960098;28;20073;-74
2023/10/08 08:35:23;;;;;;;0.00;0.00;;;10.50;100.00;;;;;;4984944;28;20081;-74
2023/10/08 08:37:51;;;;;;;0.00;0.00;;;10.50;100.00;;;;;;4985098;28;20049;-74
2023/10/08 08:40:21;;;;;;;0.00;0.00;;;10.50;100.00;;;;;;4975873;28;20050;-75
2023/10/08 08:42:52;;;;;;;0.00;0.00;;;10.50;100.00;;;;;;4970620;28;20542;-73
2023/10/08 08:45:21;;;;;;;0.00;0.00;;;10.50;100.00;;;;;;4973720;28;20494;-73
2023/10/08 08:47:48;;;;;;;0.00;0.00;;;10.50;100.00;;;;;;4968335;28;20054;-74
2023/10/08 08:50:17;;;;;;;0.00;0.00;;;10.60;100.00;;;;;;4968093;28;20050;-74
2023/10/08 08:52:45;;;;;;;0.00;0.00;;;10.60;100.00;;;;;;4967712;28;20050;-75
2023/10/08 08:55:20;;;;;;;0.00;0.00;;;10.50;100.00;;;;;;4988101;28;20050;-75
2023/10/08 08:57:49;;;;;;;0.00;0.00;;;10.60;100.00;;;;;;4994219;28;20467;-76
2023/10/08 09:00:18;;;;;;;0.00;0.00;;;10.60;99.00;;;;;;4990864;28;20641;-74
2023/10/08 09:02:47;;;;;;;0.00;0.00;;;10.60;99.60;;;;;;4966920;28;20458;-76
2023/10/08 09:05:25;;;;;;;0.00;0.00;;;10.70;99.40;;;;;;4985866;28;20054;-76
2023/10/08 09:07:58;;;;;;;0.00;0.00;;;10.70;94.80;;;;;;4985156;28;20042;-76
2023/10/08 09:10:29;;;;;;;0.00;0.00;;;10.80;98.00;;;;;;4971370;28;20051;-76
2023/10/08 09:13:00;;;;;;;0.00;0.00;;;10.90;95.30;;;;;;4983478;28;20096;-76
2023/10/08 09:15:27;;;;;;;0.00;0.00;;;11.00;98.50;;;;;;4965233;28;20043;-76
2023/10/08 09:17:55;;;;;;;0.00;0.00;;;11.10;99.30;;;;;;4968745;28;20170;-76
2023/10/08 09:20:23;;;;;;;0.00;0.00;;;11.20;94.60;;;;;;4967305;28;20057;-77
2023/10/08 09:23:11;;;;;;;0.00;0.00;;;11.40;96.80;;;;;;4969314;28;20057;-76
2023/10/08 09:25:44;;;;;;;0.00;0.00;;;11.50;93.20;;;;;;4980873;28;20125;-76
2023/10/08 09:28:14;;;;;;;0.00;0.00;;;11.70;92.20;;;;;;4974162;28;20052;-76
2023/10/08 09:30:44;;;;;;;0.00;0.00;;;11.90;94.60;;;;;;4984828;28;20053;-75
2023/10/08 09:33:12;;;;;;;0.00;0.00;;;12.00;90.10;;;;;;4967445;28;20077;-75
2023/10/08 09:35:40;;;;;;;0.00;0.00;;;12.30;84.60;;;;;;4967730;28;20438;-75
2023/10/08 09:38:11;;;;;;;0.00;0.00;;;12.60;89.70;;;;;;4985150;28;20067;-75
2023/10/08 09:40:44;;;;;;;0.00;0.00;;;12.60;82.30;;;;;;4984407;28;20081;-75
2023/10/08 09:43:11;;;;;;;0.00;0.00;;;12.70;82.30;;;;;;4983864;28;20054;-75
2023/10/08 09:45:47;;;;;;;0.00;0.00;;;12.70;83.20;;;;;;4983111;28;20062;-75
2023/10/08 09:48:18;;;;;;;0.00;0.00;;;12.60;85.20;;;;;;4968681;28;20128;-75
2023/10/08 09:50:48;;;;;;;0.00;0.00;;;12.70;83.60;;;;;;4966783;28;20250;-75
2023/10/08 09:53:19;;;;;;;0.00;0.00;;;12.80;79.70;;;;;;4989909;28;20054;-75
2023/10/08 09:55:55;;;;;;;0.00;0.00;;;12.90;77.90;;;;;;4981162;28;20463;-75
2023/10/08 09:58:24;;;;;;;0.00;0.00;;;13.10;82.60;;;;;;4978721;28;20442;-75
2023/10/08 10:00:54;;;;;;;0.00;0.00;;;13.20;82.20;;;;;;4969169;28;20050;-75
2023/10/08 10:03:28;;;;;;;0.00;0.00;;;13.30;81.10;;;;;;4968093;28;20058;-75
2023/10/08 10:05:59;;;;;;;0.00;0.00;;;13.40;81.20;;;;;;4983297;28;20065;-76
2023/10/08 10:08:29;;;;;;;0.00;0.00;;;13.40;77.30;;;;;;4972737;28;20046;-75
2023/10/08 10:11:00;;;;;;;0.00;0.00;;;13.50;76.30;;;;;;4967205;28;20125;-75
2023/10/08 10:13:29;;;;;;;0.00;0.00;;;13.60;72.30;;;;;;4968087;28;20050;-75
2023/10/08 10:15:58;;;;;;;0.00;0.00;;;13.70;74.20;;;;;;4962241;28;20054;-75
2023/10/08 10:21:58;;;;;;;0.00;0.00;;;13.90;72.50;;;;;;5018653;28;20076;-75
2023/10/08 10:24:35;;;;;;;0.00;0.00;;;14.00;76.00;;;;;;5018022;28;20053;-75
2023/10/08 10:27:14;;;;;;;0.00;0.00;;;14.10;74.00;;;;;;5020423;28;20053;-76
2023/10/08 10:29:47;;;;;;;0.00;0.00;;;14.20;69.30;;;;;;5018746;28;20057;-75
2023/10/08 10:32:15;;;;;;;0.00;0.00;;;14.60;75.70;;;;;;5019305;28;20048;-76
2023/10/08 10:34:44;;;;;;;0.00;0.00;;;14.80;68.30;;;;;;5020952;28;20045;-76
2023/10/08 10:37:20;;;;;;;0.00;0.00;;;15.10;66.70;;;;;;5020167;28;20049;-76
2023/10/08 10:39:56;;;;;;;0.00;0.00;;;15.20;70.40;;;;;;5021717;28;20053;-76
2023/10/08 10:42:23;;;;;;;0.00;0.00;;;15.10;68.20;;;;;;5018679;28;20061;-76
2023/10/08 10:44:50;;;;;;;0.00;0.00;;;15.00;64.90;;;;;;5020333;28;20084;-76
2023/10/08 10:49:53;;;;;;;0.00;0.00;;;15.20;65.80;;;;;;5022008;28;20045;-76
2023/10/08 10:55:31;;;;;;;0.00;0.00;;;15.20;65.30;;;;;;4989569;28;20054;-76
2023/10/08 10:58:11;;;;;;;0.00;0.00;;;15.30;66.60;;;;;;5022244;28;20062;-76
2023/10/08 11:03:16;;;;;;;0.00;0.00;;;15.50;67.70;;;;;;5023099;28;20830;-77
2023/10/08 11:05:51;;;;;;;0.00;0.00;;;15.60;66.70;;;;;;5017190;28;20053;-76
2023/10/08 11:08:18;;;;;;;;;;;15.60;66.60;;;;;;5017404;28;20060;-76
2023/10/08 11:10:58;;;;;;;0.00;0.00;;;15.10;63.20;;;;;;5019833;28;19921;-76
2023/10/08 11:13:37;;;;;;;0.00;0.00;;;15.00;64.00;;;;;;5017900;28;20066;-78
2023/10/08 11:16:05;;;;;;;0.00;0.00;;;14.90;66.10;;;;;;5019830;28;20595;-76
2023/10/08 11:18:32;;;;;;;0.00;0.00;;;14.70;65.40;;;;;;5019577;28;20074;-76
2023/10/08 11:21:17;;;;;;;0.00;0.00;;;14.60;69.30;;;;;;5021490;28;20072;-76
2023/10/08 11:24:08;;;;;;;0.00;0.00;;;14.40;68.20;;;;;;5019911;28;20042;-76
2023/10/08 11:26:39;;;;;;;0.00;0.00;;;14.30;69.70;;;;;;5020150;28;20106;-78
2023/10/08 11:29:14;;;;;;;0.00;0.00;;;14.10;66.70;;;;;;5021374;28;20803;-80
2023/10/08 11:31:42;;;;;;;0.00;0.00;;;13.90;70.60;;;;;;5017308;28;20107;-77
2023/10/08 11:34:13;;;;;;;0.00;0.00;;;13.70;72.60;;;;;;5015241;28;20171;-77
2023/10/08 11:36:52;;;;;;;0.00;0.00;;;13.50;74.40;;;;;;5022734;28;20533;-77
2023/10/08 11:39:23;;;;;;;0.00;0.00;;;13.50;76.30;;;;;;5013361;28;20494;-77
2023/10/08 11:42:06;;;;;;;0.00;0.00;;;13.50;77.30;;;;;;5025718;28;20054;-78
2023/10/08 11:44:35;;;;;;;0.00;0.00;;;13.50;77.30;;;;;;5022625;28;20827;-78
2023/10/08 11:47:20;;;;;;;0.00;0.00;;;13.50;78.00;;;;;;5025824;28;20049;-77
2023/10/08 11:49:53;;;;;;;0.00;0.00;;;13.80;77.90;;;;;;5022737;28;20140;-77
2023/10/08 11:52:21;;;;;;;0.00;0.00;;;14.20;77.20;;;;;;5024818;28;20099;-78
2023/10/08 11:54:52;;;;;;;0.00;0.00;;;14.60;77.70;;;;;;5023671;28;20104;-77
2023/10/08 11:57:21;;;;;;;0.00;0.00;;;15.20;75.70;;;;;;5022957;28;20057;-75
2023/10/08 11:59:52;;;;;;;0.00;0.00;;;15.90;75.10;;;;;;5014295;28;20153;-76
2023/10/08 12:02:20;;;;;;;0.00;0.00;;;16.10;70.30;;;;;;5022403;28;20140;-75
2023/10/08 12:04:47;;;;;;;0.00;0.00;;;16.40;70.80;;;;;;5017260;28;20049;-76
2023/10/08 12:07:17;;;;;;;0.00;0.00;;;17.70;68.80;;;;;;5014895;28;20046;-76
2023/10/08 12:09:48;;;;;;;0.00;0.00;;;18.60;61.50;;;;;;5017793;28;20053;-75
2023/10/08 12:12:16;;;;;;;0.00;0.00;;;19.50;60.70;;;;;;5015578;28;20573;-76
2023/10/08 12:14:47;;;;;;;0.00;0.00;;;19.80;58.60;;;;;;5015215;28;20060;-76
2023/10/08 12:17:16;;;;;;;0.00;0.00;;;19.90;58.10;;;;;;5016264;28;20058;-76
2023/10/08 12:19:45;;;;;;;0.00;0.00;;;20.30;58.70;;;;;;5012764;28;20061;-75
2023/10/08 12:22:17;;;;;;;0.00;0.00;;;20.90;54.80;;;;;;5026549;28;20077;-76
2023/10/08 12:24:44;;;;;;;0.00;0.00;;;20.20;53.60;;;;;;5012697;28;20050;-78
2023/10/08 12:27:11;;;;;;;0.00;0.00;;;19.00;59.50;;;;;;5016411;28;20051;-79
2023/10/08 12:29:39;;;;;;;0.00;0.00;;;18.50;57.90;;;;;;5019832;28;20136;-78
2023/10/08 12:32:17;;;;;;;0.00;0.00;;;18.30;62.40;;;;;;5012464;28;20765;-77
2023/10/08 12:34:44;;;;;;;0.00;0.00;;;18.20;61.70;;;;;;5017546;28;20053;-77
2023/10/08 12:37:14;;;;;;;0.00;0.00;;;18.30;62.30;;;;;;5011564;28;20081;-79
2023/10/08 12:39:59;;;;;;;0.00;0.00;;;18.20;60.50;;;;;;5011994;28;20804;-77
2023/10/08 12:42:27;;;;;;;0.00;0.00;;;18.40;62.60;;;;;;5023194;28;20132;-77
2023/10/08 12:44:57;;;;;;;0.00;0.00;;;18.60;58.90;;;;;;5010944;28;20054;-77
2023/10/08 12:47:28;;;;;;;0.00;0.00;;;18.00;56.50;;;;;;5019675;28;20065;-76
2023/10/08 12:49:57;;;;;;;0.00;0.00;;;17.70;57.60;;;;;;5017876;28;20046;-76
2023/10/08 12:52:27;;;;;;;0.00;0.00;;;17.00;58.10;;;;;;5018860;28;20054;-76
2023/10/08 12:54:58;;;;;;;0.00;0.00;;;16.70;62.40;;;;;;5019958;28;20053;-78
2023/10/08 12:57:31;;;;;;;0.00;0.00;;;16.60;65.10;;;;;;5012105;28;20490;-77
2023/10/08 12:59:59;;;;;;;0.00;0.00;;;17.10;65.10;;;;;;5023406;28;20124;-79
2023/10/08 13:02:29;;;;;;;0.00;0.00;;;17.40;61.10;;;;;;5020899;28;20049;-79
2023/10/08 13:04:59;;;;;;;0.00;0.00;;;17.60;60.50;;;;;;5019352;28;20049;-77
2023/10/08 13:07:26;;;;;;;0.05;0.05;;;17.60;62.90;;;;;;5017925;28;20139;-78
2023/10/08 13:09:53;;;;;;;0.00;0.00;;;17.30;60.60;;;;;;5018465;28;20458;-78
2023/10/08 13:12:20;;;;;;;0.00;0.00;;;17.00;60.20;;;;;;5023821;28;20060;-78
2023/10/08 13:14:48;;;;;;;0.00;0.00;;;16.30;60.80;;;;;;5015284;28;20051;-77
2023/10/08 13:17:15;;;;;;;0.00;0.00;;;16.10;62.80;;;;;;5012479;28;20053;-78
2023/10/08 13:19:42;;;;;;;0.00;0.00;;;16.00;64.80;;;;;;5023651;28;20049;-76
2023/10/08 13:22:09;;;;;;;0.00;0.00;;;15.90;62.90;;;;;;5018752;28;20057;-76
2023/10/08 13:24:36;;;;;;;0.00;0.00;;;15.70;64.20;;;;;;5011635;28;20041;-76
2023/10/08 13:27:06;;;;;;;0.00;0.00;;;15.60;65.80;;;;;;5007526;28;20046;-77
2023/10/08 13:29:33;;;;;;;0.05;0.03;;;15.50;67.30;;;;;;5009441;28;20156;-77
2023/10/08 13:32:01;;;;;;;3.08;1.40;;;15.40;64.80;;;;;;5009116;28;20478;-77
2023/10/08 13:34:28;;;;;;;4.47;2.55;;;15.50;65.50;;;;;;5011914;28;20559;-77
2023/10/08 13:36:56;;;;;;;3.53;1.10;;;15.60;65.80;;;;;;5018215;28;20053;-77
2023/10/08 13:39:23;;;;;;;1.88;0.77;;;15.40;64.60;;;;;;5029459;28;20445;-79
2023/10/08 13:41:52;;;;;;;2.25;1.17;;;15.40;63.60;;;;;;5007959;28;20057;-78
2023/10/08 13:44:28;;;;;;;1.10;0.43;;;15.40;67.10;;;;;;5009690;28;20646;-80
2023/10/08 13:47:00;;;;;;;4.05;0.93;;;15.40;66.20;;;;;;5022004;28;20045;-78
2023/10/08 13:49:27;;;;;;;2.55;0.47;;;15.30;63.00;;;;;;5018946;28;20056;-78
2023/10/08 13:51:57;;;;;;;2.17;0.68;;;15.10;65.60;;;;;;5017822;28;20049;-78
2023/10/08 13:54:32;;;;;;;2.05;0.50;;;15.00;66.30;;;;;;5021858;28;20146;-79
2023/10/08 13:57:01;;;;;;;3.00;0.73;;;14.90;66.10;;;;;;5024330;28;20054;-80
2023/10/08 13:59:31;;;;;;;1.48;0.38;;;14.90;67.30;;;;;;5023047;28;20525;-81
2023/10/08 14:02:01;;;;;;;3.13;0.55;;;14.80;67.70;;;;;;5018840;28;20454;-79
2023/10/08 14:04:38;;;;;;;3.40;0.55;;;14.80;69.80;;;;;;5016938;28;20050;-80
2023/10/08 14:07:05;;;;;;;3.03;0.40;;;14.60;68.80;;;;;;5009387;28;20834;-78
2023/10/08 14:09:36;;;;;;;2.50;0.70;;;14.60;69.10;;;;;;5013336;28;20049;-76
2023/10/08 14:12:07;;;;;;;1.50;0.82;;;14.60;70.30;;;;;;5021589;28;20117;-76
2023/10/08 14:14:35;;;;;;;1.02;0.70;;;14.60;70.10;;;;;;5021594;28;20054;-77
2023/10/08 14:17:05;;;;;;;4.15;0.90;;;14.50;68.80;;;;;;5014152;28;20053;-77
2023/10/08 14:19:42;;;;;;;1.30;0.70;;;14.40;69.20;;;;;;5017816;28;20401;-77
2023/10/08 14:22:13;;;;;;;2.67;0.60;;;14.30;69.70;;;;;;5023359;28;20049;-78
2023/10/08 14:24:45;;;;;;;3.50;0.57;;;14.40;70.50;;;;;;5018973;28;20888;-77